sensor_id;sensor_type;location;lat;lon;timestamp;P1;durP1;ratioP1;P2;durP2;ratioP2
12770;SDS011;6449;47.666;9.160;2024-01-15T00:02:44;14.37;;;7.07;;
12770;SDS011;6449;47.666;9.160;2024-01-15T00:07:41;16.77;;;7.33;;
12770;SDS011;6449;47.666;9.160;2024-01-15T00:12:34;13.43;;;7.13;;
12770;SDS011;6449;47.666;9.160;2024-01-15T00:17:28;19.23;;;8.70;;
12770;SDS011;6449;47.666;9.160;2024-01-15T00:22:21;14.33;;;8.23;;
12770;SDS011;6449;47.666;9.160;2024-01-15T00:27:19;15.63;;;7.80;;
12770;SDS011;6449;47.666;9.160;2024-01-15T00:32:12;17.30;;;7.50;;
12770;SDS011;6449;47.666;9.160;2024-01-15T00:37:06;14.23;;;8.13;;
12770;SDS011;6449;47.666;9.160;2024-01-15T00:41:59;15.57;;;7.50;;
12770;SDS011;6449;47.666;9.160;2024-01-15T00:46:54;13.07;;;7.33;;
12770;SDS011;6449;47.666;9.160;2024-01-15T00:51:47;15.80;;;6.77;;
12770;SDS011;6449;47.666;9.160;2024-01-15T00:56:41;10.77;;;5.77;;
12770;SDS011;6449;47.666;9.160;2024-01-15T01:01:34;13.17;;;6.67;;
12770;SDS011;6449;47.666;9.160;2024-01-15T01:06:30;8.77;;;5.20;;
12770;SDS011;6449;47.666;9.160;2024-01-15T01:11:24;9.90;;;5.87;;
12770;SDS011;6449;47.666;9.160;2024-01-15T01:16:18;7.80;;;5.43;;
12770;SDS011;6449;47.666;9.160;2024-01-15T01:21:11;10.27;;;5.43;;
12770;SDS011;6449;47.666;9.160;2024-01-15T01:26:06;8.87;;;4.87;;
12770;SDS011;6449;47.666;9.160;2024-01-15T01:30:59;8.20;;;4.80;;
12770;SDS011;6449;47.666;9.160;2024-01-15T01:35:53;8.30;;;4.50;;
12770;SDS011;6449;47.666;9.160;2024-01-15T01:40:48;7.90;;;4.40;;
12770;SDS011;6449;47.666;9.160;2024-01-15T01:45:43;7.13;;;4.23;;
12770;SDS011;6449;47.666;9.160;2024-01-15T01:50:36;6.33;;;3.77;;
12770;SDS011;6449;47.666;9.160;2024-01-15T01:55:30;6.93;;;4.10;;
12770;SDS011;6449;47.666;9.160;2024-01-15T02:00:26;6.20;;;3.90;;
12770;SDS011;6449;47.666;9.160;2024-01-15T02:05:22;6.17;;;3.57;;
12770;SDS011;6449;47.666;9.160;2024-01-15T02:10:15;8.97;;;4.30;;
12770;SDS011;6449;47.666;9.160;2024-01-15T02:15:09;7.43;;;4.10;;
12770;SDS011;6449;47.666;9.160;2024-01-15T02:20:04;7.10;;;4.43;;
12770;SDS011;6449;47.666;9.160;2024-01-15T02:25:01;7.00;;;4.27;;
12770;SDS011;6449;47.666;9.160;2024-01-15T02:29:54;5.47;;;3.57;;
12770;SDS011;6449;47.666;9.160;2024-01-15T02:34:48;5.90;;;3.60;;
12770;SDS011;6449;47.666;9.160;2024-01-15T02:39:42;8.90;;;4.20;;
12770;SDS011;6449;47.666;9.160;2024-01-15T02:44:37;5.80;;;3.83;;
12770;SDS011;6449;47.666;9.160;2024-01-15T02:49:30;10.13;;;4.90;;
12770;SDS011;6449;47.666;9.160;2024-01-15T02:54:24;5.93;;;3.83;;
12770;SDS011;6449;47.666;9.160;2024-01-15T02:59:18;7.03;;;4.23;;
12770;SDS011;6449;47.666;9.160;2024-01-15T03:04:12;9.90;;;4.90;;
12770;SDS011;6449;47.666;9.160;2024-01-15T03:09:06;7.03;;;4.27;;
12770;SDS011;6449;47.666;9.160;2024-01-15T03:14:00;5.67;;;4.00;;
12770;SDS011;6449;47.666;9.160;2024-01-15T03:18:53;6.87;;;4.37;;
12770;SDS011;6449;47.666;9.160;2024-01-15T03:23:48;7.67;;;4.10;;
12770;SDS011;6449;47.666;9.160;2024-01-15T03:28:41;7.63;;;4.00;;
12770;SDS011;6449;47.666;9.160;2024-01-15T03:33:35;8.13;;;4.37;;
12770;SDS011;6449;47.666;9.160;2024-01-15T03:38:28;7.27;;;4.07;;
12770;SDS011;6449;47.666;9.160;2024-01-15T03:43:23;5.90;;;4.17;;
12770;SDS011;6449;47.666;9.160;2024-01-15T03:48:16;7.90;;;4.23;;
12770;SDS011;6449;47.666;9.160;2024-01-15T03:53:10;6.17;;;3.93;;
12770;SDS011;6449;47.666;9.160;2024-01-15T03:58:03;9.53;;;4.77;;
12770;SDS011;6449;47.666;9.160;2024-01-15T04:02:58;6.33;;;4.00;;
12770;SDS011;6449;47.666;9.160;2024-01-15T04:07:51;9.73;;;4.70;;
12770;SDS011;6449;47.666;9.160;2024-01-15T04:12:44;9.80;;;5.33;;
12770;SDS011;6449;47.666;9.160;2024-01-15T04:17:38;11.17;;;4.90;;
12770;SDS011;6449;47.666;9.160;2024-01-15T04:22:33;8.37;;;4.87;;
12770;SDS011;6449;47.666;9.160;2024-01-15T04:27:28;10.63;;;5.27;;
12770;SDS011;6449;47.666;9.160;2024-01-15T04:32:21;8.60;;;5.10;;
12770;SDS011;6449;47.666;9.160;2024-01-15T04:37:15;9.70;;;5.37;;
12770;SDS011;6449;47.666;9.160;2024-01-15T04:42:12;12.40;;;6.10;;
12770;SDS011;6449;47.666;9.160;2024-01-15T04:47:05;10.93;;;5.37;;
12770;SDS011;6449;47.666;9.160;2024-01-15T04:51:59;9.87;;;5.80;;
12770;SDS011;6449;47.666;9.160;2024-01-15T04:56:52;12.33;;;6.10;;
12770;SDS011;6449;47.666;9.160;2024-01-15T05:01:47;12.57;;;5.87;;
12770;SDS011;6449;47.666;9.160;2024-01-15T05:06:41;8.97;;;5.53;;
12770;SDS011;6449;47.666;9.160;2024-01-15T05:11:34;10.97;;;5.30;;
12770;SDS011;6449;47.666;9.160;2024-01-15T05:16:27;14.23;;;6.70;;
12770;SDS011;6449;47.666;9.160;2024-01-15T05:21:22;7.20;;;4.47;;
12770;SDS011;6449;47.666;9.160;2024-01-15T05:26:16;10.43;;;5.17;;
12770;SDS011;6449;47.666;9.160;2024-01-15T05:31:09;10.83;;;5.13;;
12770;SDS011;6449;47.666;9.160;2024-01-15T05:36:03;15.27;;;6.30;;
12770;SDS011;6449;47.666;9.160;2024-01-15T05:40:59;12.27;;;5.43;;
12770;SDS011;6449;47.666;9.160;2024-01-15T05:45:52;9.10;;;4.93;;
12770;SDS011;6449;47.666;9.160;2024-01-15T05:50:46;12.17;;;6.20;;
12770;SDS011;6449;47.666;9.160;2024-01-15T05:55:41;8.37;;;5.00;;
12770;SDS011;6449;47.666;9.160;2024-01-15T06:00:36;10.90;;;5.57;;
12770;SDS011;6449;47.666;9.160;2024-01-15T06:05:29;12.23;;;5.50;;
12770;SDS011;6449;47.666;9.160;2024-01-15T06:10:23;12.70;;;5.70;;
12770;SDS011;6449;47.666;9.160;2024-01-15T06:15:16;11.37;;;4.83;;
12770;SDS011;6449;47.666;9.160;2024-01-15T06:20:12;11.63;;;5.43;;
12770;SDS011;6449;47.666;9.160;2024-01-15T06:25:06;11.33;;;5.23;;
12770;SDS011;6449;47.666;9.160;2024-01-15T06:30:03;12.03;;;5.57;;
12770;SDS011;6449;47.666;9.160;2024-01-15T06:34:58;12.77;;;5.60;;
12770;SDS011;6449;47.666;9.160;2024-01-15T06:39:53;12.30;;;5.90;;
12770;SDS011;6449;47.666;9.160;2024-01-15T06:44:46;12.20;;;5.50;;
12770;SDS011;6449;47.666;9.160;2024-01-15T06:49:40;12.20;;;5.83;;
12770;SDS011;6449;47.666;9.160;2024-01-15T06:54:33;10.80;;;5.30;;
12770;SDS011;6449;47.666;9.160;2024-01-15T06:59:28;11.10;;;5.10;;
12770;SDS011;6449;47.666;9.160;2024-01-15T07:04:21;11.77;;;5.50;;
12770;SDS011;6449;47.666;9.160;2024-01-15T07:09:15;12.87;;;5.70;;
12770;SDS011;6449;47.666;9.160;2024-01-15T07:14:08;9.63;;;5.27;;
12770;SDS011;6449;47.666;9.160;2024-01-15T07:19:04;9.67;;;5.63;;
12770;SDS011;6449;47.666;9.160;2024-01-15T07:23:59;10.40;;;5.40;;
12770;SDS011;6449;47.666;9.160;2024-01-15T07:28:52;10.87;;;5.43;;
12770;SDS011;6449;47.666;9.160;2024-01-15T07:33:45;17.17;;;6.47;;
12770;SDS011;6449;47.666;9.160;2024-01-15T07:38:40;11.43;;;4.90;;
12770;SDS011;6449;47.666;9.160;2024-01-15T07:43:34;11.80;;;5.57;;
12770;SDS011;6449;47.666;9.160;2024-01-15T07:48:27;9.87;;;5.00;;
12770;SDS011;6449;47.666;9.160;2024-01-15T07:53:21;11.53;;;5.30;;
12770;SDS011;6449;47.666;9.160;2024-01-15T07:58:16;11.63;;;6.00;;
12770;SDS011;6449;47.666;9.160;2024-01-15T08:03:10;12.27;;;5.70;;
12770;SDS011;6449;47.666;9.160;2024-01-15T08:08:04;10.43;;;5.73;;
12770;SDS011;6449;47.666;9.160;2024-01-15T08:12:58;13.10;;;6.03;;
12770;SDS011;6449;47.666;9.160;2024-01-15T08:17:53;13.33;;;5.87;;
12770;SDS011;6449;47.666;9.160;2024-01-15T08:22:46;11.50;;;5.97;;
12770;SDS011;6449;47.666;9.160;2024-01-15T08:27:39;13.77;;;6.33;;
12770;SDS011;6449;47.666;9.160;2024-01-15T08:32:34;12.23;;;6.97;;
12770;SDS011;6449;47.666;9.160;2024-01-15T08:37:33;12.27;;;6.03;;
12770;SDS011;6449;47.666;9.160;2024-01-15T08:42:27;11.47;;;5.73;;
12770;SDS011;6449;47.666;9.160;2024-01-15T08:47:20;11.57;;;5.80;;
12770;SDS011;6449;47.666;9.160;2024-01-15T08:52:16;11.67;;;5.80;;
12770;SDS011;6449;47.666;9.160;2024-01-15T08:57:13;10.37;;;5.80;;
12770;SDS011;6449;47.666;9.160;2024-01-15T09:02:06;11.57;;;5.63;;
12770;SDS011;6449;47.666;9.160;2024-01-15T09:07:00;10.67;;;5.60;;
12770;SDS011;6449;47.666;9.160;2024-01-15T09:11:54;11.13;;;6.53;;
12770;SDS011;6449;47.666;9.160;2024-01-15T09:16:49;12.80;;;6.00;;
12770;SDS011;6449;47.666;9.160;2024-01-15T09:21:49;10.53;;;6.03;;
12770;SDS011;6449;47.666;9.160;2024-01-15T09:26:43;11.40;;;5.93;;
12770;SDS011;6449;47.666;9.160;2024-01-15T09:31:36;11.07;;;5.53;;
12770;SDS011;6449;47.666;9.160;2024-01-15T09:36:31;10.33;;;5.63;;
12770;SDS011;6449;47.666;9.160;2024-01-15T09:41:24;10.47;;;5.70;;
12770;SDS011;6449;47.666;9.160;2024-01-15T09:46:18;13.20;;;6.40;;
12770;SDS011;6449;47.666;9.160;2024-01-15T09:51:12;13.63;;;6.30;;
12770;SDS011;6449;47.666;9.160;2024-01-15T09:56:07;11.23;;;5.63;;
12770;SDS011;6449;47.666;9.160;2024-01-15T10:01:03;15.60;;;6.10;;
12770;SDS011;6449;47.666;9.160;2024-01-15T10:05:59;11.70;;;6.03;;
12770;SDS011;6449;47.666;9.160;2024-01-15T10:10:53;10.53;;;5.63;;
12770;SDS011;6449;47.666;9.160;2024-01-15T10:15:48;13.80;;;5.83;;
12770;SDS011;6449;47.666;9.160;2024-01-15T10:20:43;10.97;;;5.70;;
12770;SDS011;6449;47.666;9.160;2024-01-15T10:25:38;10.43;;;5.53;;
12770;SDS011;6449;47.666;9.160;2024-01-15T10:30:34;9.87;;;5.37;;
12770;SDS011;6449;47.666;9.160;2024-01-15T10:35:32;9.80;;;5.37;;
12770;SDS011;6449;47.666;9.160;2024-01-15T10:40:26;8.60;;;4.57;;
12770;SDS011;6449;47.666;9.160;2024-01-15T10:45:20;11.07;;;5.93;;
12770;SDS011;6449;47.666;9.160;2024-01-15T10:50:14;8.53;;;4.83;;
12770;SDS011;6449;47.666;9.160;2024-01-15T10:55:10;11.97;;;5.43;;
12770;SDS011;6449;47.666;9.160;2024-01-15T11:00:10;8.57;;;4.43;;
12770;SDS011;6449;47.666;9.160;2024-01-15T11:05:06;9.80;;;4.73;;
12770;SDS011;6449;47.666;9.160;2024-01-15T11:10:02;10.63;;;5.77;;
12770;SDS011;6449;47.666;9.160;2024-01-15T11:15:02;8.77;;;5.33;;
12770;SDS011;6449;47.666;9.160;2024-01-15T11:20:00;7.10;;;4.30;;
12770;SDS011;6449;47.666;9.160;2024-01-15T11:25:01;10.57;;;5.10;;
12770;SDS011;6449;47.666;9.160;2024-01-15T11:30:04;8.93;;;4.93;;
12770;SDS011;6449;47.666;9.160;2024-01-15T11:35:04;10.07;;;4.90;;
12770;SDS011;6449;47.666;9.160;2024-01-15T11:40:01;8.13;;;4.70;;
12770;SDS011;6449;47.666;9.160;2024-01-15T11:44:56;9.97;;;5.80;;
12770;SDS011;6449;47.666;9.160;2024-01-15T11:49:56;17.73;;;6.73;;
12770;SDS011;6449;47.666;9.160;2024-01-15T11:54:55;9.80;;;5.30;;
12770;SDS011;6449;47.666;9.160;2024-01-15T12:00:01;8.07;;;3.93;;
12770;SDS011;6449;47.666;9.160;2024-01-15T12:04:57;7.87;;;4.30;;
12770;SDS011;6449;47.666;9.160;2024-01-15T12:09:50;6.40;;;3.97;;
12770;SDS011;6449;47.666;9.160;2024-01-15T12:14:44;7.10;;;4.20;;
12770;SDS011;6449;47.666;9.160;2024-01-15T12:19:38;10.20;;;4.80;;
12770;SDS011;6449;47.666;9.160;2024-01-15T12:24:33;6.10;;;3.43;;
12770;SDS011;6449;47.666;9.160;2024-01-15T12:29:26;7.03;;;3.10;;
12770;SDS011;6449;47.666;9.160;2024-01-15T12:34:20;7.07;;;3.53;;
12770;SDS011;6449;47.666;9.160;2024-01-15T12:39:13;5.00;;;3.30;;
12770;SDS011;6449;47.666;9.160;2024-01-15T12:44:08;4.17;;;3.10;;
12770;SDS011;6449;47.666;9.160;2024-01-15T12:49:03;6.27;;;3.33;;
12770;SDS011;6449;47.666;9.160;2024-01-15T12:53:57;6.90;;;3.90;;
12770;SDS011;6449;47.666;9.160;2024-01-15T12:58:50;6.53;;;3.17;;
12770;SDS011;6449;47.666;9.160;2024-01-15T13:03:49;4.63;;;2.90;;
12770;SDS011;6449;47.666;9.160;2024-01-15T13:08:44;5.00;;;3.60;;
12770;SDS011;6449;47.666;9.160;2024-01-15T13:13:39;4.80;;;3.10;;
12770;SDS011;6449;47.666;9.160;2024-01-15T13:18:33;4.60;;;2.97;;
12770;SDS011;6449;47.666;9.160;2024-01-15T13:23:30;4.73;;;2.90;;
12770;SDS011;6449;47.666;9.160;2024-01-15T13:28:24;5.13;;;3.50;;
12770;SDS011;6449;47.666;9.160;2024-01-15T13:33:18;5.80;;;3.17;;
12770;SDS011;6449;47.666;9.160;2024-01-15T13:38:12;6.47;;;3.40;;
12770;SDS011;6449;47.666;9.160;2024-01-15T13:43:07;5.13;;;3.00;;
12770;SDS011;6449;47.666;9.160;2024-01-15T13:48:00;3.73;;;2.90;;
12770;SDS011;6449;47.666;9.160;2024-01-15T13:52:57;4.60;;;3.10;;
12770;SDS011;6449;47.666;9.160;2024-01-15T13:57:50;6.70;;;3.17;;
12770;SDS011;6449;47.666;9.160;2024-01-15T14:02:45;4.80;;;3.10;;
12770;SDS011;6449;47.666;9.160;2024-01-15T14:07:39;4.47;;;3.00;;
12770;SDS011;6449;47.666;9.160;2024-01-15T14:12:34;5.53;;;3.20;;
12770;SDS011;6449;47.666;9.160;2024-01-15T14:17:28;7.50;;;3.60;;
12770;SDS011;6449;47.666;9.160;2024-01-15T14:22:23;5.73;;;2.93;;
12770;SDS011;6449;47.666;9.160;2024-01-15T14:27:17;5.93;;;3.37;;
12770;SDS011;6449;47.666;9.160;2024-01-15T14:32:13;7.97;;;3.97;;
12770;SDS011;6449;47.666;9.160;2024-01-15T14:37:07;7.17;;;4.27;;
12770;SDS011;6449;47.666;9.160;2024-01-15T14:42:02;7.53;;;4.60;;
12770;SDS011;6449;47.666;9.160;2024-01-15T14:47:00;13.43;;;4.73;;
12770;SDS011;6449;47.666;9.160;2024-01-15T14:51:54;11.07;;;6.10;;
12770;SDS011;6449;47.666;9.160;2024-01-15T14:56:48;13.97;;;6.63;;
12770;SDS011;6449;47.666;9.160;2024-01-15T15:01:45;11.43;;;6.60;;
12770;SDS011;6449;47.666;9.160;2024-01-15T15:06:39;11.67;;;6.63;;
12770;SDS011;6449;47.666;9.160;2024-01-15T15:11:33;10.70;;;6.00;;
12770;SDS011;6449;47.666;9.160;2024-01-15T15:16:26;11.07;;;6.17;;
12770;SDS011;6449;47.666;9.160;2024-01-15T15:21:21;12.90;;;6.57;;
12770;SDS011;6449;47.666;9.160;2024-01-15T15:26:15;14.87;;;7.13;;
12770;SDS011;6449;47.666;9.160;2024-01-15T15:31:10;11.03;;;6.23;;
12770;SDS011;6449;47.666;9.160;2024-01-15T15:36:04;10.87;;;6.37;;
12770;SDS011;6449;47.666;9.160;2024-01-15T15:40:59;9.67;;;6.10;;
12770;SDS011;6449;47.666;9.160;2024-01-15T15:45:53;11.63;;;6.07;;
12770;SDS011;6449;47.666;9.160;2024-01-15T15:50:47;11.87;;;6.33;;
12770;SDS011;6449;47.666;9.160;2024-01-15T15:55:42;12.47;;;5.60;;
12770;SDS011;6449;47.666;9.160;2024-01-15T16:00:37;10.17;;;5.73;;
12770;SDS011;6449;47.666;9.160;2024-01-15T16:05:32;8.23;;;4.77;;
12770;SDS011;6449;47.666;9.160;2024-01-15T16:10:47;7.97;;;4.72;;
12770;SDS011;6449;47.666;9.160;2024-01-15T16:16:17;8.13;;;4.60;;
12770;SDS011;6449;47.666;9.160;2024-01-15T16:21:30;7.40;;;4.50;;
12770;SDS011;6449;47.666;9.160;2024-01-15T16:26:46;5.47;;;3.13;;
12770;SDS011;6449;47.666;9.160;2024-01-15T16:31:48;4.60;;;3.00;;
12770;SDS011;6449;47.666;9.160;2024-01-15T16:36:56;4.20;;;2.30;;
12770;SDS011;6449;47.666;9.160;2024-01-15T16:41:50;5.07;;;2.90;;
12770;SDS011;6449;47.666;9.160;2024-01-15T16:47:02;3.90;;;2.43;;
12770;SDS011;6449;47.666;9.160;2024-01-15T16:51:59;4.20;;;2.63;;
12770;SDS011;6449;47.666;9.160;2024-01-15T16:56:52;3.97;;;2.67;;
12770;SDS011;6449;47.666;9.160;2024-01-15T17:01:46;4.83;;;2.90;;
12770;SDS011;6449;47.666;9.160;2024-01-15T17:06:45;3.00;;;2.13;;
12770;SDS011;6449;47.666;9.160;2024-01-15T17:11:39;3.70;;;2.60;;
12770;SDS011;6449;47.666;9.160;2024-01-15T17:16:32;5.53;;;2.53;;
12770;SDS011;6449;47.666;9.160;2024-01-15T17:21:26;6.27;;;2.87;;
12770;SDS011;6449;47.666;9.160;2024-01-15T17:26:20;6.87;;;2.93;;
12770;SDS011;6449;47.666;9.160;2024-01-15T17:31:14;4.63;;;3.00;;
12770;SDS011;6449;47.666;9.160;2024-01-15T17:36:07;6.63;;;3.87;;
12770;SDS011;6449;47.666;9.160;2024-01-15T17:41:01;6.17;;;3.70;;
12770;SDS011;6449;47.666;9.160;2024-01-15T17:45:56;7.37;;;3.90;;
12770;SDS011;6449;47.666;9.160;2024-01-15T17:50:52;6.57;;;4.00;;
12770;SDS011;6449;47.666;9.160;2024-01-15T17:55:45;6.93;;;3.93;;
12770;SDS011;6449;47.666;9.160;2024-01-15T18:00:41;7.17;;;4.23;;
12770;SDS011;6449;47.666;9.160;2024-01-15T18:05:36;5.87;;;3.87;;
12770;SDS011;6449;47.666;9.160;2024-01-15T18:10:30;9.70;;;4.87;;
12770;SDS011;6449;47.666;9.160;2024-01-15T18:15:26;7.40;;;4.30;;
12770;SDS011;6449;47.666;9.160;2024-01-15T18:26:59;6.37;;;4.27;;
12770;SDS011;6449;47.666;9.160;2024-01-15T18:32:32;7.63;;;4.77;;
12770;SDS011;6449;47.666;9.160;2024-01-15T18:37:40;8.17;;;4.60;;
12770;SDS011;6449;47.666;9.160;2024-01-15T18:42:45;7.57;;;4.77;;
12770;SDS011;6449;47.666;9.160;2024-01-15T18:47:40;6.30;;;4.33;;
12770;SDS011;6449;47.666;9.160;2024-01-15T18:52:45;8.70;;;4.70;;
12770;SDS011;6449;47.666;9.160;2024-01-15T18:57:57;11.10;;;5.43;;
12770;SDS011;6449;47.666;9.160;2024-01-15T19:02:57;9.63;;;5.93;;
12770;SDS011;6449;47.666;9.160;2024-01-15T19:07:52;9.57;;;5.63;;
12770;SDS011;6449;47.666;9.160;2024-01-15T19:18:27;9.30;;;5.13;;
12770;SDS011;6449;47.666;9.160;2024-01-15T19:23:23;8.33;;;5.30;;
12770;SDS011;6449;47.666;9.160;2024-01-15T19:28:16;10.40;;;4.83;;
12770;SDS011;6449;47.666;9.160;2024-01-15T19:33:12;8.63;;;4.67;;
12770;SDS011;6449;47.666;9.160;2024-01-15T19:38:19;9.33;;;5.33;;
12770;SDS011;6449;47.666;9.160;2024-01-15T19:43:19;12.03;;;6.03;;
12770;SDS011;6449;47.666;9.160;2024-01-15T19:48:13;8.37;;;5.27;;
12770;SDS011;6449;47.666;9.160;2024-01-15T19:53:09;9.00;;;4.93;;
12770;SDS011;6449;47.666;9.160;2024-01-15T19:58:06;10.67;;;6.10;;
12770;SDS011;6449;47.666;9.160;2024-01-15T20:03:02;9.83;;;5.60;;
12770;SDS011;6449;47.666;9.160;2024-01-15T20:07:55;9.40;;;5.77;;
12770;SDS011;6449;47.666;9.160;2024-01-15T20:12:49;8.77;;;5.30;;
12770;SDS011;6449;47.666;9.160;2024-01-15T20:17:44;9.00;;;5.60;;
12770;SDS011;6449;47.666;9.160;2024-01-15T20:22:40;8.60;;;5.10;;
12770;SDS011;6449;47.666;9.160;2024-01-15T20:27:33;8.53;;;4.57;;
12770;SDS011;6449;47.666;9.160;2024-01-15T20:32:27;8.33;;;4.77;;
12770;SDS011;6449;47.666;9.160;2024-01-15T20:37:24;9.33;;;4.93;;
12770;SDS011;6449;47.666;9.160;2024-01-15T20:42:17;8.53;;;5.07;;
12770;SDS011;6449;47.666;9.160;2024-01-15T20:47:11;8.30;;;4.67;;
12770;SDS011;6449;47.666;9.160;2024-01-15T20:52:16;6.27;;;3.87;;
12770;SDS011;6449;47.666;9.160;2024-01-15T20:57:20;6.97;;;3.93;;
12770;SDS011;6449;47.666;9.160;2024-01-15T21:02:14;7.17;;;4.10;;
12770;SDS011;6449;47.666;9.160;2024-01-15T21:07:09;9.77;;;5.20;;
12770;SDS011;6449;47.666;9.160;2024-01-15T21:12:05;8.97;;;4.20;;
12770;SDS011;6449;47.666;9.160;2024-01-15T21:17:03;6.87;;;3.90;;
12770;SDS011;6449;47.666;9.160;2024-01-15T21:21:57;6.50;;;4.07;;
12770;SDS011;6449;47.666;9.160;2024-01-15T21:26:51;8.33;;;4.63;;
12770;SDS011;6449;47.666;9.160;2024-01-15T21:31:45;6.37;;;3.80;;
12770;SDS011;6449;47.666;9.160;2024-01-15T21:36:42;5.93;;;3.97;;
12770;SDS011;6449;47.666;9.160;2024-01-15T21:41:38;7.60;;;4.50;;
12770;SDS011;6449;47.666;9.160;2024-01-15T21:46:32;6.33;;;4.07;;
12770;SDS011;6449;47.666;9.160;2024-01-15T21:51:38;7.27;;;4.37;;
12770;SDS011;6449;47.666;9.160;2024-01-15T21:56:38;6.90;;;3.80;;
12770;SDS011;6449;47.666;9.160;2024-01-15T22:01:31;5.30;;;2.90;;
12770;SDS011;6449;47.666;9.160;2024-01-15T22:06:25;3.07;;;2.37;;
12770;SDS011;6449;47.666;9.160;2024-01-15T22:11:22;4.13;;;2.57;;
12770;SDS011;6449;47.666;9.160;2024-01-15T22:16:15;4.97;;;2.73;;
12770;SDS011;6449;47.666;9.160;2024-01-15T22:21:08;3.93;;;2.53;;
12770;SDS011;6449;47.666;9.160;2024-01-15T22:26:03;5.80;;;2.63;;
12770;SDS011;6449;47.666;9.160;2024-01-15T22:30:59;4.13;;;2.47;;
12770;SDS011;6449;47.666;9.160;2024-01-15T22:35:53;6.37;;;3.50;;
12770;SDS011;6449;47.666;9.160;2024-01-15T22:40:47;7.57;;;4.17;;
12770;SDS011;6449;47.666;9.160;2024-01-15T22:45:40;6.63;;;3.80;;
12770;SDS011;6449;47.666;9.160;2024-01-15T22:50:36;6.73;;;3.77;;
12770;SDS011;6449;47.666;9.160;2024-01-15T22:55:29;4.67;;;3.17;;
12770;SDS011;6449;47.666;9.160;2024-01-15T23:00:22;3.77;;;2.73;;
12770;SDS011;6449;47.666;9.160;2024-01-15T23:05:16;5.20;;;3.03;;
12770;SDS011;6449;47.666;9.160;2024-01-15T23:10:11;3.73;;;2.80;;
12770;SDS011;6449;47.666;9.160;2024-01-15T23:15:05;5.47;;;3.47;;
12770;SDS011;6449;47.666;9.160;2024-01-15T23:19:59;5.10;;;3.03;;
12770;SDS011;6449;47.666;9.160;2024-01-15T23:24:53;6.60;;;3.50;;
12770;SDS011;6449;47.666;9.160;2024-01-15T23:29:48;5.93;;;3.33;;
12770;SDS011;6449;47.666;9.160;2024-01-15T23:34:41;6.03;;;3.70;;
12770;SDS011;6449;47.666;9.160;2024-01-15T23:39:34;6.30;;;3.60;;
12770;SDS011;6449;47.666;9.160;2024-01-15T23:44:28;6.67;;;3.60;;
12770;SDS011;6449;47.666;9.160;2024-01-15T23:49:22;4.93;;;3.13;;
12770;SDS011;6449;47.666;9.160;2024-01-15T23:54:16;5.97;;;4.17;;
12770;SDS011;6449;47.666;9.160;2024-01-15T23:59:12;5.77;;;3.03;;
